Time;durP1;ratioP1;P1;durP2;ratioP2;P2;SDS_P1;SDS_P2;PMS_P1;PMS_P2;Temp;Humidity;BMP_temperature;BMP_pressure;BME280_temperature;BME280_humidity;BME280_pressure;Samples;Min_cycle;Max_cycle;Signal;HPM_P1;HPM_P2
2023/09/05 00:01:12;;;;;;;6.70;4.40;;;;;;;-141.97;86.52;47686.31;5028696;28;20170;-78
2023/09/05 00:03:38;;;;;;;8.07;4.63;;;;;;;-141.97;85.65;47676.69;5029500;28;20204;-78
2023/09/05 00:06:05;;;;;;;7.63;4.37;;;;;;;-141.97;85.27;47638.25;5029387;28;20921;-79
2023/09/05 00:08:31;;;;;;;6.13;4.50;;;;;;;-141.97;86.24;47659.38;5028702;28;20186;-78
2023/09/05 00:11:01;;;;;;;6.13;4.50;;;;;;;-141.97;85.85;47669.00;5029272;28;20630;-78
2023/09/05 00:13:26;;;;;;;6.70;4.73;;;;;;;-141.97;86.27;47607.50;5029330;28;20170;-79
2023/09/05 00:15:52;;;;;;;7.37;5.00;;;;;;;-141.97;85.79;47630.56;5028484;28;20192;-79
2023/09/05 00:18:18;;;;;;;7.30;4.70;;;;;;;-141.97;85.53;47665.16;5028651;28;20202;-78
2023/09/05 00:20:45;;;;;;;6.87;4.63;;;;;;;-141.97;85.55;47661.31;5029348;28;20535;-79
2023/09/05 00:23:10;;;;;;;9.00;4.90;;;;;;;-141.97;85.79;47653.63;5028661;28;20544;-79
2023/09/05 00:25:35;;;;;;;6.60;5.10;;;;;;;-141.97;85.93;47626.72;5028578;28;20744;-78
2023/09/05 00:28:03;;;;;;;6.87;4.80;;;;;;;-141.97;86.00;47738.19;5027531;28;20177;-79
2023/09/05 00:30:29;;;;;;;6.70;4.67;;;;;;;-141.97;85.94;47676.69;5028274;28;20677;-79
2023/09/05 00:32:54;;;;;;;8.70;4.60;;;;;;;-141.97;86.43;47665.16;5028409;28;20178;-79
2023/09/05 00:35:19;;;;;;;8.10;5.07;;;;;;;-141.97;86.44;47655.53;5028961;28;20197;-79
2023/09/05 00:37:47;;;;;;;6.97;4.53;;;;;;;-141.97;86.89;47630.56;5028414;28;20885;-78
2023/09/05 00:40:14;;;;;;;6.90;4.57;;;;;;;-141.97;87.44;47676.69;5027917;28;20274;-78
2023/09/05 00:42:39;;;;;;;5.77;4.50;;;;;;;-141.97;87.90;47690.16;5015043;28;20448;-77
2023/09/05 00:45:05;;;;;;;7.10;4.90;;;;;;;-141.97;87.89;47663.22;5026626;28;20193;-78
2023/09/05 00:47:32;;;;;;;7.43;5.10;;;;;;;-141.97;87.73;47680.53;5028000;28;20185;-78
2023/09/05 00:49:58;;;;;;;8.77;4.73;;;;;;;-141.97;89.03;47638.25;5027765;28;20596;-78
2023/09/05 00:52:25;;;;;;;9.27;5.10;;;;;;;-141.97;88.77;47665.16;5027640;28;20769;-79
2023/09/05 00:54:51;;;;;;;6.90;5.17;;;;;;;-141.97;88.70;47672.84;5028172;28;20194;-79
2023/09/05 00:57:19;;;;;;;6.83;4.87;;;;;;;-141.97;89.61;47684.38;5026736;28;20316;-78
2023/09/05 00:59:45;;;;;;;6.40;4.90;;;;;;;-141.97;89.90;47676.69;5027885;28;20268;-79
2023/09/05 01:02:10;;;;;;;8.93;5.30;;;;;;;-141.97;90.26;47669.00;5027582;28;20277;-79
2023/09/05 01:04:37;;;;;;;6.73;5.07;;;;;;;-141.97;90.75;47665.16;5027115;28;20214;-78
2023/09/05 01:07:12;;;;;;;7.40;5.40;;;;;;;-141.97;91.07;47678.63;5027372;28;20177;-77
2023/09/05 01:09:43;;;;;;;8.00;5.40;;;;;;;-141.97;91.53;47676.69;5028236;28;20291;-78
2023/09/05 01:12:08;;;;;;;7.93;5.47;;;;;;;-141.97;91.41;47705.53;5027313;28;20189;-78
2023/09/05 01:14:34;;;;;;;7.73;5.33;;;;;;;-141.97;91.69;47676.69;5027157;28;20186;-79
2023/09/05 01:17:05;;;;;;;9.73;5.80;;;;;;;-141.97;91.32;47645.94;5026036;28;20209;-78
2023/09/05 01:19:38;;;;;;;11.50;5.90;;;;;;;-141.97;92.34;47686.31;5027420;28;20661;-77
2023/09/05 01:22:16;;;;;;;8.57;5.73;;;;;;;-141.97;93.37;47834.31;5027874;28;20586;-78
2023/09/05 01:24:43;;;;;;;10.70;6.40;;;;;;;-141.97;93.66;47634.41;5027760;28;20189;-78
2023/09/05 01:27:09;;;;;;;9.13;6.07;;;;;;;-141.97;93.60;47822.78;5027476;28;20371;-78
2023/09/05 01:29:36;;;;;;;9.57;5.90;;;;;;;-141.97;94.03;47695.91;5027927;28;20225;-77
2023/09/05 01:32:03;;;;;;;9.57;6.03;;;;;;;-141.97;93.93;47718.97;5034793;28;20188;-76
2023/09/05 01:34:30;;;;;;;8.67;6.17;;;;;;;-141.97;93.40;47657.47;5028720;28;20252;-77
2023/09/05 01:36:55;;;;;;;9.37;6.20;;;;;;;-141.97;93.44;47678.63;5028089;28;20198;-77
2023/09/05 01:39:20;;;;;;;9.57;6.03;;;;;;;-141.97;93.08;47669.00;5028584;28;20239;-77
2023/09/05 01:41:47;;;;;;;8.67;6.10;;;;;;;-141.97;92.53;47688.22;5016794;28;20766;-78
2023/09/05 01:44:12;;;;;;;9.43;6.30;;;;;;;-141.97;92.27;47695.91;5028255;28;20200;-79
2023/09/05 01:46:38;;;;;;;8.93;5.93;;;;;;;-141.97;91.47;47653.63;5027755;28;20194;-77
2023/09/05 01:49:03;;;;;;;10.27;6.10;;;;;;;-141.97;91.31;47726.66;5029719;28;20209;-78
2023/09/05 01:51:28;;;;;;;11.13;5.97;;;;;;;-141.97;90.81;47695.91;5031782;28;20182;-78
2023/09/05 01:53:54;;;;;;;9.27;5.73;;;;;;;-141.97;91.12;47690.16;5031209;28;20286;-78
2023/09/05 01:56:19;;;;;;;9.10;5.80;;;;;;;-141.97;91.03;47734.34;5032369;28;20507;-77
2023/09/05 01:58:44;;;;;;;8.43;5.47;;;;;;;-141.97;91.37;47642.09;5031755;28;20186;-77
2023/09/05 02:01:10;;;;;;;8.23;5.67;;;;;;;-141.97;91.11;47838.16;5031665;28;20273;-77
2023/09/05 02:03:35;;;;;;;6.50;5.07;;;;;;;-141.97;91.66;47647.84;5031845;28;20182;-78
2023/09/05 02:06:01;;;;;;;8.03;5.40;;;;;;;-141.97;91.44;47663.22;5031336;28;20182;-78
2023/09/05 02:08:26;;;;;;;10.37;5.73;;;;;;;-141.97;91.51;47707.44;5031341;28;20610;-78
2023/09/05 02:10:52;;;;;;;7.83;5.57;;;;;;;-141.97;91.49;47672.84;5032680;28;20186;-78
2023/09/05 02:13:17;;;;;;;9.03;5.53;;;;;;;-141.97;90.77;47732.44;5031980;28;20626;-78
2023/09/05 02:15:43;;;;;;;7.70;5.57;;;;;;;-141.97;90.37;47718.97;5032487;28;20186;-79
2023/09/05 02:18:10;;;;;;;7.77;5.57;;;;;;;-141.97;90.17;47640.16;5054638;28;20198;-78
2023/09/05 02:20:45;;;;;;;7.73;5.57;;;;;;;-141.97;89.98;47659.38;5047008;28;20181;-78
2023/09/05 02:23:10;;;;;;;8.27;5.40;;;;;;;-141.97;89.99;47684.38;5031152;28;20256;-78
2023/09/05 02:25:35;;;;;;;7.93;5.63;;;;;;;-141.97;89.58;47695.91;5030889;28;20297;-77
2023/09/05 02:28:01;;;;;;;8.93;5.20;;;;;;;-141.97;88.99;47669.00;5031471;28;20185;-78
2023/09/05 02:30:26;;;;;;;8.50;5.70;;;;;;;-141.97;88.80;47657.47;5030841;28;20599;-77
2023/09/05 02:32:56;;;;;;;7.50;5.73;;;;;;;-141.97;88.04;47688.22;5031224;28;20304;-78
2023/09/05 02:35:25;;;;;;;7.83;5.80;;;;;;;-141.97;87.30;47717.06;5030834;28;20184;-78
2023/09/05 02:37:51;;;;;;;8.57;5.30;;;;;;;-141.97;87.21;47697.84;5030247;28;20236;-80
2023/09/05 02:40:18;;;;;;;8.47;4.90;;;;;;;-141.97;87.10;47717.06;5029616;28;20186;-79
2023/09/05 02:42:43;;;;;;;7.77;5.20;;;;;;;-141.97;86.59;47838.16;5018668;28;20240;-79
2023/09/05 02:45:10;;;;;;;6.13;4.90;;;;;;;-141.97;87.04;47676.69;5031164;28;20218;-79
2023/09/05 02:47:35;;;;;;;6.87;5.03;;;;;;;-141.97;86.93;47620.94;5030765;28;20182;-79
2023/09/05 02:50:01;;;;;;;6.30;4.63;;;;;;;-141.97;86.53;47590.19;5033047;28;20185;-79
2023/09/05 02:52:27;;;;;;;6.53;4.60;;;;;;;-141.97;86.62;47692.06;5030802;28;20660;-78
2023/09/05 02:54:52;;;;;;;7.13;4.83;;;;;;;-141.97;86.43;47676.69;5028584;28;20169;-79
2023/09/05 02:57:18;;;;;;;7.67;4.50;;;;;;;-141.97;85.33;47715.13;5029891;28;20677;-79
2023/09/05 02:59:43;;;;;;;6.00;4.60;;;;;;;-141.97;84.85;47672.84;5029458;28;20273;-78
2023/09/05 03:02:08;;;;;;;6.47;4.63;;;;;;;-141.97;85.50;47630.56;5029470;28;20185;-78
2023/09/05 03:04:34;;;;;;;9.17;4.70;;;;;;;-141.97;84.19;47705.53;5028468;28;20757;-78
2023/09/05 03:07:01;;;;;;;5.97;4.50;;;;;;;-141.97;84.14;47661.31;5030054;28;20192;-78
2023/09/05 03:09:28;;;;;;;7.83;4.13;;;;;;;-141.97;83.54;47665.16;5030225;28;20186;-78
2023/09/05 03:11:53;;;;;;;5.87;4.30;;;;;;;-141.97;83.38;47688.22;5029724;28;20272;-78
2023/09/05 03:14:18;;;;;;;6.03;4.43;;;;;;;-141.97;83.42;47657.47;5029632;28;20268;-77
2023/09/05 03:16:44;;;;;;;6.27;4.60;;;;;;;-141.97;83.39;47663.22;5029924;28;20233;-78
2023/09/05 03:19:11;;;;;;;6.40;4.53;;;;;;;-141.97;84.90;47563.28;5029564;28;20193;-77
2023/09/05 03:21:37;;;;;;;6.80;4.10;;;;;;;-141.97;85.66;47649.78;5030079;28;20181;-78
2023/09/05 03:24:03;;;;;;;6.77;4.57;;;;;;;-141.97;86.69;47651.69;5030006;28;20186;-79
2023/09/05 03:26:28;;;;;;;6.67;5.00;;;;;;;-141.97;87.48;47707.44;5029067;28;20231;-78
2023/09/05 03:28:54;;;;;;;9.33;5.17;;;;;;;-141.97;88.26;47674.78;5029784;28;20186;-78
2023/09/05 03:31:19;;;;;;;6.73;5.23;;;;;;;-141.97;88.40;47692.06;5029891;28;20316;-78
2023/09/05 03:33:45;;;;;;;8.13;5.40;;;;;;;-141.97;88.10;47661.31;5029247;28;20193;-78
2023/09/05 03:36:11;;;;;;;9.00;5.30;;;;;;;-141.97;87.90;47676.69;5028927;28;20211;-78
2023/09/05 03:38:36;;;;;;;9.60;5.83;;;;;;;-141.97;87.51;47695.91;5029750;28;20208;-78
2023/09/05 03:41:02;;;;;;;6.83;5.00;;;;;;;-141.97;87.40;47688.22;5028900;28;20264;-78
2023/09/05 03:43:28;;;;;;;8.30;5.27;;;;;;;-141.97;87.30;47703.59;5017375;28;20613;-77
2023/09/05 03:45:53;;;;;;;7.47;5.20;;;;;;;-141.97;87.11;47692.06;5028225;28;20562;-77
2023/09/05 03:48:19;;;;;;;8.07;5.10;;;;;;;-141.97;87.15;47667.06;5028685;28;20190;-78
2023/09/05 03:50:44;;;;;;;8.03;4.87;;;;;;;-141.97;87.18;47684.38;5028817;28;20201;-77
2023/09/05 03:53:09;;;;;;;6.70;5.13;;;;;;;-141.97;87.29;47713.22;5029385;28;20188;-77
2023/09/05 03:55:35;;;;;;;7.03;5.07;;;;;;;-141.97;87.01;47694.00;5028105;28;20669;-78
2023/09/05 03:58:02;;;;;;;7.83;5.27;;;;;;;-141.97;87.31;47676.69;5028715;28;20216;-77
2023/09/05 04:00:29;;;;;;;6.97;4.80;;;;;;;-141.97;87.58;47607.50;5029337;28;20193;-78
2023/09/05 04:02:55;;;;;;;7.97;5.17;;;;;;;-141.97;87.37;47665.16;5028517;28;20746;-78
2023/09/05 04:05:21;;;;;;;6.40;4.73;;;;;;;-141.97;87.05;47667.06;5028486;28;20300;-78
2023/09/05 04:07:47;;;;;;;6.20;4.80;;;;;;;-141.97;87.18;47657.47;5029201;28;20221;-77
2023/09/05 04:10:13;;;;;;;6.43;5.17;;;;;;;-141.97;87.33;47697.84;5032654;28;20182;-77
2023/09/05 04:12:40;;;;;;;10.67;5.10;;;;;;;-141.97;88.08;47722.81;5028604;28;20185;-78
2023/09/05 04:15:05;;;;;;;7.23;5.30;;;;;;;-141.97;87.82;47667.06;5027534;28;20516;-77
2023/09/05 04:17:31;;;;;;;10.07;5.40;;;;;;;-141.97;87.29;47657.47;5028351;28;20201;-78
2023/09/05 04:19:56;;;;;;;6.27;4.90;;;;;;;-141.97;87.17;47701.69;5028615;28;20681;-78
2023/09/05 04:22:24;;;;;;;7.00;5.07;;;;;;;-141.97;87.41;47644.00;5028320;28;20178;-77
2023/09/05 04:24:57;;;;;;;8.80;5.40;;;;;;;-141.97;87.70;47699.75;5028478;28;20186;-78
2023/09/05 04:27:23;;;;;;;8.40;5.47;;;;;;;-141.97;87.61;47663.22;5029420;28;20694;-80
2023/09/05 04:29:54;;;;;;;6.63;5.00;;;;;;;-141.97;88.54;47680.53;5028613;28;20197;-78
2023/09/05 04:32:30;;;;;;;6.50;5.00;;;;;;;-141.97;88.35;47628.63;5028151;28;20283;-77
2023/09/05 04:34:57;;;;;;;8.03;5.10;;;;;;;-141.97;88.68;47669.00;5028265;28;20507;-77
2023/09/05 04:37:23;;;;;;;9.00;5.17;;;;;;;-141.97;88.80;47703.59;5029160;28;20296;-77
2023/09/05 04:39:49;;;;;;;8.83;5.20;;;;;;;-141.97;89.65;47626.72;5028349;28;20714;-79
2023/09/05 04:42:14;;;;;;;5.93;4.90;;;;;;;-141.97;89.98;47676.69;5017072;28;20218;-78
2023/09/05 04:44:40;;;;;;;9.30;5.20;;;;;;;-141.97;90.25;47720.91;5028324;28;20193;-78
2023/09/05 04:47:26;;;;;;;7.87;5.50;;;;;;;-141.97;90.33;47699.75;5027844;28;20181;-80
2023/09/05 04:49:54;;;;;;;6.00;5.20;;;;;;;-141.97;90.95;47694.00;5029254;28;20177;-78
2023/09/05 04:52:21;;;;;;;8.53;5.53;;;;;;;-141.97;91.06;47672.84;5028919;28;20185;-80
2023/09/05 04:54:47;;;;;;;8.50;5.37;;;;;;;-141.97;91.26;47663.22;5028218;28;20178;-79
2023/09/05 04:57:16;;;;;;;9.03;5.50;;;;;;;-141.97;91.13;47688.22;5029268;28;20237;-78
2023/09/05 04:59:47;;;;;;;8.97;5.70;;;;;;;-141.97;91.38;47676.69;5028629;28;20182;-77
2023/09/05 05:02:13;;;;;;;10.67;5.63;;;;;;;-141.97;91.06;47667.06;5027847;28;20538;-78
2023/09/05 05:04:40;;;;;;;8.07;5.63;;;;;;;-141.97;90.55;47622.88;5027628;28;20222;-78
2023/09/05 05:07:06;;;;;;;9.13;5.73;;;;;;;-141.97;90.12;47709.38;5027837;28;20193;-78
2023/09/05 05:09:31;;;;;;;8.03;5.30;;;;;;;-141.97;89.38;47697.84;5028263;28;20189;-79
2023/09/05 05:11:56;;;;;;;7.07;5.23;;;;;;;-141.97;89.17;47688.22;5027866;28;20188;-79
2023/09/05 05:14:22;;;;;;;7.97;5.50;;;;;;;-141.97;88.98;47634.41;5026858;28;20503;-78
2023/09/05 05:16:49;;;;;;;7.57;5.03;;;;;;;-141.97;87.88;47667.06;5027500;28;20205;-80
2023/09/05 05:19:14;;;;;;;8.40;5.20;;;;;;;-141.97;87.40;47690.16;5027920;28;20182;-81
2023/09/05 05:21:40;;;;;;;9.30;5.13;;;;;;;-141.97;86.73;47707.44;5027839;28;20184;-78
2023/09/05 05:24:06;;;;;;;5.93;4.67;;;;;;;-141.97;85.94;47692.06;5027792;28;20269;-78
2023/09/05 05:26:32;;;;;;;8.37;4.47;;;;;;;-141.97;85.48;47695.91;5031161;28;20248;-80
2023/09/05 05:28:58;;;;;;;6.63;4.40;;;;;;;-141.97;87.12;47705.53;5031397;28;20745;-77
2023/09/05 05:31:23;;;;;;;7.63;4.43;;;;;;;-141.97;88.49;47674.78;5031921;28;20331;-79
2023/09/05 05:33:49;;;;;;;11.53;4.53;;;;;;;-141.97;92.41;47694.00;5031887;28;20185;-80
2023/09/05 05:36:14;;;;;;;5.53;4.20;;;;;;;-141.97;93.96;47676.69;5031263;28;20645;-79
2023/09/05 05:38:40;;;;;;;8.10;5.20;;;;;;;-141.97;95.37;47697.84;5031680;28;20213;-82
2023/09/05 05:41:09;;;;;;;12.03;6.27;;;;;;;-141.97;96.41;47726.66;5030437;28;20217;-82
2023/09/05 05:43:35;;;;;;;10.37;6.13;;;;;;;-141.97;96.99;47651.69;5019621;28;20397;-82
2023/09/05 05:46:00;;;;;;;8.07;6.20;;;;;;;-141.97;98.71;47680.53;5030689;28;20256;-81
2023/09/05 05:48:29;;;;;;;10.07;5.97;;;;;;;-141.97;98.79;47676.69;5022046;28;20189;-82
2023/09/05 05:50:55;;;;;;;9.27;5.93;;;;;;;-141.97;99.78;47699.75;5028169;28;20174;-79
2023/09/05 05:53:21;;;;;;;10.30;6.93;;;;;;;-141.97;100.00;47690.16;5028573;28;20182;-79
2023/09/05 05:55:47;;;;;;;9.77;6.07;;;;;;;-141.97;100.00;47692.06;5028587;28;20185;-81
2023/09/05 05:58:13;;;;;;;9.10;6.70;;;;;;;-141.97;100.00;47692.06;5042400;28;20256;-80
2023/09/05 06:00:44;;;;;;;9.00;6.53;;;;;;;-141.97;100.00;47628.63;5035728;28;20281;-81
2023/09/05 06:03:11;;;;;;;10.10;6.50;;;;;;;-141.97;100.00;47699.75;5029828;28;20182;-82
2023/09/05 06:05:37;;;;;;;12.40;6.50;;;;;;;-141.97;100.00;47707.44;5030282;28;20205;-79
2023/09/05 06:08:02;;;;;;;10.63;6.77;;;;;;;-141.97;100.00;47742.03;5047224;28;20189;-79
2023/09/05 06:10:28;;;;;;;9.07;6.60;;;;;;;-141.97;100.00;47695.91;5044789;28;20186;-81
2023/09/05 06:12:53;;;;;;;11.07;6.40;;;;;;;-141.97;100.00;47715.13;5028296;28;20209;-79
2023/09/05 06:15:19;;;;;;;9.47;6.70;;;;;;;-141.97;100.00;47705.53;5027969;28;20186;-79
2023/09/05 06:17:44;;;;;;;10.23;5.93;;;;;;;-141.97;100.00;47695.91;5028314;28;20300;-81
2023/09/05 06:20:10;;;;;;;8.50;6.40;;;;;;;-141.97;100.00;47684.38;5028131;28;20189;-81
2023/09/05 06:22:35;;;;;;;10.17;6.80;;;;;;;-141.97;100.00;47726.66;5028136;28;20213;-80
2023/09/05 06:25:01;;;;;;;10.23;6.83;;;;;;;-141.97;100.00;47715.13;5027759;28;20297;-80
2023/09/05 06:27:27;;;;;;;10.90;6.77;;;;;;;-141.97;100.00;47692.06;5041969;28;20239;-81
2023/09/05 06:29:52;;;;;;;17.40;7.37;;;;;;;-141.97;100.00;47669.00;5047088;28;20185;-80
2023/09/05 06:32:17;;;;;;;10.47;7.00;;;;;;;-141.97;100.00;47688.22;5047321;28;20188;-82
2023/09/05 06:34:43;;;;;;;10.13;7.43;;;;;;;-141.97;100.00;47659.38;5044391;28;20272;-81
2023/09/05 06:37:09;;;;;;;9.87;7.07;;;;;;;-141.97;100.00;47697.84;5012982;28;20190;-82
2023/09/05 06:39:35;;;;;;;9.53;6.50;;;;;;;-141.97;100.00;47717.06;5015178;28;20198;-82
2023/09/05 06:42:00;;;;;;;9.73;6.90;;;;;;;-141.97;97.77;47684.38;5031489;28;20225;-80
2023/09/05 06:44:29;;;;;;;9.60;6.03;;;;;;;-141.97;96.82;47678.63;5021612;28;20225;-81
2023/09/05 06:46:54;;;;;;;9.23;6.47;;;;;;;-141.97;96.54;47669.00;5031898;28;20205;-80
2023/09/05 06:49:19;;;;;;;8.97;6.50;;;;;;;-141.97;95.80;47680.53;5033842;28;20209;-81
2023/09/05 06:51:45;;;;;;;9.63;6.63;;;;;;;-141.97;95.71;47688.22;5031030;28;20181;-80
2023/09/05 06:54:10;;;;;;;11.27;6.70;;;;;;;-141.97;94.42;47665.16;5032614;28;20300;-80
2023/09/05 06:56:36;;;;;;;12.70;6.70;;;;;;;-141.97;91.66;47672.84;5033924;28;20276;-80
2023/09/05 06:59:01;;;;;;;8.47;6.30;;;;;;;-141.97;90.30;47742.03;5035460;28;20193;-80
2023/09/05 07:01:28;;;;;;;9.17;6.77;;;;;;;-141.97;90.27;47692.06;5032927;28;20172;-81
2023/09/05 07:03:53;;;;;;;10.00;7.13;;;;;;;-141.97;91.78;47694.00;5032743;28;20170;-81
2023/09/05 07:06:19;;;;;;;10.50;6.50;;;;;;;-141.97;91.87;47703.59;5032978;28;20169;-81
2023/09/05 07:08:46;;;;;;;10.00;6.77;;;;;;;-141.97;93.34;47834.31;5032241;28;20166;-80
2023/09/05 07:11:12;;;;;;;9.80;6.70;;;;;;;-141.97;93.85;47653.63;5012112;28;20174;-81
2023/09/05 07:13:37;;;;;;;8.30;6.70;;;;;;;-141.97;94.29;47717.06;5029930;28;20177;-80
2023/09/05 07:16:03;;;;;;;11.03;7.20;;;;;;;-141.97;94.81;47703.59;5031916;28;20653;-80
2023/09/05 07:18:28;;;;;;;11.17;7.40;;;;;;;-141.97;96.57;47672.84;5030068;28;20198;-81
2023/09/05 07:20:53;;;;;;;13.80;7.33;;;;;;;-141.97;97.88;47751.66;5032195;28;20200;-80
2023/09/05 07:23:19;;;;;;;10.00;6.67;;;;;;;-141.97;98.80;47713.22;5031240;28;20182;-80
2023/09/05 07:25:44;;;;;;;11.60;7.20;;;;;;;-141.97;99.55;47726.66;5031666;28;20221;-80
2023/09/05 07:28:10;;;;;;;11.17;7.53;;;;;;;-141.97;99.62;47707.44;5031603;28;20166;-79
2023/09/05 07:30:35;;;;;;;9.80;7.33;;;;;;;-141.97;99.88;47768.94;5030035;28;20312;-80
2023/09/05 07:33:00;;;;;;;12.10;7.57;;;;;;;-141.97;100.00;47718.97;5031600;28;20182;-80
2023/09/05 07:35:26;;;;;;;10.83;7.70;;;;;;;-141.97;100.00;47705.53;5031528;28;20166;-79
2023/09/05 07:37:51;;;;;;;10.33;7.93;;;;;;;-141.97;100.00;47718.97;5031061;28;20197;-78
2023/09/05 07:40:17;;;;;;;10.80;7.90;;;;;;;-141.97;100.00;47717.06;5031230;28;20204;-78
2023/09/05 07:42:43;;;;;;;13.37;8.50;;;;;;;-141.97;100.00;47745.88;5030754;28;20226;-79
2023/09/05 07:45:11;;;;;;;11.77;8.83;;;;;;;-141.97;100.00;47699.75;5020885;28;20355;-79
2023/09/05 07:47:37;;;;;;;12.93;8.60;;;;;;;-141.97;100.00;47720.91;5031598;28;20534;-79
2023/09/05 07:50:03;;;;;;;12.63;8.47;;;;;;;-141.97;100.00;47707.44;5031259;28;20162;-78
2023/09/05 07:52:29;;;;;;;13.93;8.70;;;;;;;-141.97;100.00;47718.97;5031120;28;20177;-78
2023/09/05 07:54:54;;;;;;;10.97;8.00;;;;;;;-141.97;100.00;47736.28;5030714;28;20173;-78
2023/09/05 07:57:19;;;;;;;11.20;8.33;;;;;;;-141.97;100.00;47734.34;5030676;28;20192;-78
2023/09/05 07:59:45;;;;;;;11.83;8.53;;;;;;;-141.97;100.00;47715.13;5030806;28;20610;-79
2023/09/05 08:02:10;;;;;;;11.17;8.43;;;;;;;-141.97;100.00;47730.50;5030637;28;20174;-79
2023/09/05 08:04:38;;;;;;;12.83;9.33;;;;;;;-141.97;100.00;47709.38;5030972;28;20215;-78
2023/09/05 08:07:05;;;;;;;12.17;8.63;;;;;;;-141.97;100.00;47682.47;5030884;28;20166;-79
2023/09/05 08:09:30;;;;;;;14.57;10.03;;;;;;;-141.97;100.00;47701.69;5030817;28;20216;-78
2023/09/05 08:11:56;;;;;;;12.77;9.43;;;;;;;-141.97;100.00;47707.44;5030273;28;20166;-79
2023/09/05 08:14:22;;;;;;;13.43;9.80;;;;;;;-141.97;99.41;47720.91;5029638;28;20178;-78
2023/09/05 08:16:47;;;;;;;12.53;8.90;;;;;;;-141.97;97.93;47715.13;5030482;28;20197;-78
2023/09/05 08:19:13;;;;;;;13.10;9.33;;;;;;;-141.97;96.94;47718.97;5030716;28;20243;-79
2023/09/05 08:21:38;;;;;;;11.90;8.80;;;;;;;-141.97;94.79;47715.13;5030309;28;20221;-78
2023/09/05 08:24:04;;;;;;;11.83;8.97;;;;;;;-141.97;94.06;47690.16;5030303;28;20610;-80
2023/09/05 08:26:32;;;;;;;14.33;8.57;;;;;;;-141.97;92.17;47686.31;5030701;28;20173;-78
2023/09/05 08:28:57;;;;;;;12.20;8.43;;;;;;;-141.97;91.17;47730.50;5030391;28;20220;-80
2023/09/05 08:31:24;;;;;;;12.50;8.40;;;;;;;-141.97;88.63;47692.06;5030364;28;20170;-78
2023/09/05 08:33:50;;;;;;;10.23;7.90;;;;;;;-141.97;84.75;47705.53;5030178;28;20220;-79
2023/09/05 08:36:15;;;;;;;11.57;7.83;;;;;;;-141.97;83.20;47670.91;5030103;28;20905;-80
2023/09/05 08:38:40;;;;;;;9.23;7.17;;;;;;;-141.97;79.40;47680.53;5030246;28;20284;-79
2023/09/05 08:41:09;;;;;;;9.60;7.30;;;;;;;-141.97;78.04;47684.38;5030296;28;20219;-79
2023/09/05 08:43:35;;;;;;;10.10;6.73;;;;;;;-141.97;77.55;47653.63;5020891;28;20245;-79
2023/09/05 08:46:01;;;;;;;9.53;6.83;;;;;;;-141.97;76.68;47692.06;5030146;28;20529;-78
2023/09/05 08:48:27;;;;;;;9.03;7.70;;;;;;;-141.97;75.44;47684.38;5029934;28;20169;-79
2023/09/05 08:50:55;;;;;;;9.30;6.93;;;;;;;-141.97;74.53;47670.91;5030243;28;20162;-80
2023/09/05 08:53:29;;;;;;;8.70;7.07;;;;;;;-141.97;72.82;47651.69;5012829;28;20878;-79
2023/09/05 08:55:56;;;;;;;8.07;6.83;;;;;;;-141.97;73.48;47655.53;5028474;28;20166;-80
2023/09/05 08:58:22;;;;;;;9.07;7.30;;;;;;;-141.97;75.11;47634.41;5029308;28;20197;-79
2023/09/05 09:00:48;;;;;;;9.57;7.57;;;;;;;-141.97;72.41;47657.47;5029830;28;20165;-78
2023/09/05 09:03:14;;;;;;;8.80;6.90;;;;;;;-141.97;71.66;47655.53;5030332;28;20174;-78
2023/09/05 09:05:41;;;;;;;9.30;7.30;;;;;;;-141.97;69.55;47661.31;5029678;28;20827;-78
2023/09/05 09:08:09;;;;;;;9.70;7.40;;;;;;;-141.97;71.09;47634.41;5029939;28;20161;-80
2023/09/05 09:10:34;;;;;;;9.50;7.20;;;;;;;-141.97;69.60;47663.22;5030430;28;20320;-79
2023/09/05 09:13:17;;;;;;;9.93;7.97;;;;;;;-141.97;68.17;47659.38;5029848;28;20265;-79
2023/09/05 09:15:43;;;;;;;9.20;7.23;;;;;;;-141.97;66.18;47649.78;5029823;28;20176;-79
2023/09/05 09:18:17;;;;;;;9.63;7.80;;;;;;;-141.97;65.15;47626.72;5028353;28;20193;-79
2023/09/05 09:20:51;;;;;;;8.47;7.57;;;;;;;-141.97;63.98;47609.41;5028233;28;20598;-79
2023/09/05 09:23:35;;;;;;;9.90;7.47;;;;;;;-141.97;64.60;47665.16;5029842;28;20232;-79
2023/09/05 09:26:02;;;;;;;9.77;8.10;;;;;;;-141.97;64.37;47626.72;5030564;28;20591;-79
2023/09/05 09:28:31;;;;;;;12.40;8.53;;;;;;;-141.97;63.71;47626.72;5031480;28;20162;-78
2023/09/05 09:31:02;;;;;;;9.37;7.83;;;;;;;-141.97;62.57;47594.03;5028764;28;20622;-78
2023/09/05 09:33:31;;;;;;;12.60;8.80;;;;;;;-141.97;66.13;47632.47;5029914;28;20277;-78
2023/09/05 09:35:59;;;;;;;9.33;7.87;;;;;;;-141.97;64.52;47653.63;5029372;28;20202;-78
2023/09/05 09:38:26;;;;;;;11.60;8.53;;;;;;;-141.97;64.38;47578.66;5029690;28;20193;-79
2023/09/05 09:40:51;;;;;;;12.23;8.90;;;;;;;-141.97;63.20;47630.56;5026984;28;20182;-78
2023/09/05 09:43:17;;;;;;;9.97;8.37;;;;;;;-141.97;62.84;47619.03;5020576;28;20709;-78
2023/09/05 09:45:42;;;;;;;12.27;9.00;;;;;;;-141.97;66.16;47644.00;5029235;28;20246;-79
2023/09/05 09:48:10;;;;;;;11.63;9.50;;;;;;;-141.97;65.41;47572.91;5029739;28;20624;-79
2023/09/05 09:50:36;;;;;;;12.13;9.57;;;;;;;-141.97;66.57;47640.16;5029765;28;20641;-79
2023/09/05 09:53:04;;;;;;;12.67;9.80;;;;;;;-141.97;65.58;47642.09;5028301;28;20185;-79
2023/09/05 09:55:32;;;;;;;14.53;12.17;;;;;;;-141.97;66.43;47649.78;5029851;28;20879;-78
2023/09/05 09:58:04;;;;;;;23.37;17.30;;;;;;;-141.97;64.22;47622.88;5029997;28;20204;-78
2023/09/05 10:00:32;;;;;;;12.27;10.40;;;;;;;-141.97;62.44;47622.88;5027636;28;20189;-78
2023/09/05 10:03:00;;;;;;;10.03;8.27;;;;;;;-141.97;60.85;47636.31;5031020;28;20634;-78
2023/09/05 10:05:26;;;;;;;10.47;8.67;;;;;;;-141.97;63.09;47634.41;5029368;28;20170;-79
2023/09/05 10:07:54;;;;;;;10.30;8.70;;;;;;;-141.97;61.49;47607.50;5020032;28;20335;-79
2023/09/05 10:10:20;;;;;;;9.67;8.63;;;;;;;-141.97;61.31;47622.88;5049546;28;20178;-79
2023/09/05 10:12:46;;;;;;;11.03;8.97;;;;;;;-141.97;61.57;47613.25;5042278;28;20174;-78
2023/09/05 10:15:14;;;;;;;10.10;8.47;;;;;;;-141.97;60.67;47619.03;5033043;28;20170;-78
2023/09/05 10:17:42;;;;;;;13.02;10.07;;;;;;;-141.97;59.10;47592.13;5033338;28;20668;-78
2023/09/05 10:20:09;;;;;;;10.07;8.93;;;;;;;-141.97;58.23;47592.13;5033006;28;20226;-78
2023/09/05 10:22:39;;;;;;;9.98;8.98;;;;;;;-141.97;59.24;47634.41;5032811;28;20191;-78
2023/09/05 10:25:06;;;;;;;10.43;8.85;;;;;;;-141.97;56.67;47611.34;5033049;28;20252;-79
2023/09/05 10:27:31;;;;;;;9.90;8.45;;;;;;;-141.97;57.20;47601.72;5032730;28;20177;-79
2023/09/05 10:29:57;;;;;;;9.75;8.63;;;;;;;-141.97;57.84;47601.72;5032769;28;20165;-79
2023/09/05 10:32:24;;;;;;;10.38;8.90;;;;;;;-141.97;57.64;47595.97;5032346;28;20548;-79
2023/09/05 10:34:58;;;;;;;10.45;9.05;;;;;;;-141.97;57.17;47659.38;5032730;28;20196;-79
2023/09/05 10:37:34;;;;;;;9.70;8.70;;;;;;;-141.97;56.26;47607.50;5032522;28;20197;-78
2023/09/05 10:40:13;;;;;;;9.70;8.70;;;;;;;-141.97;57.34;47640.16;5032694;28;20183;-78
2023/09/05 10:42:50;;;;;;;10.52;9.00;;;;;;;-141.97;55.70;47547.91;5032184;28;20220;-79
2023/09/05 10:45:21;;;;;;;10.18;8.25;;;;;;;-141.97;55.96;47634.41;5032252;28;20188;-79
2023/09/05 10:47:50;;;;;;;10.30;9.20;;;;;;;-141.97;55.44;47617.09;5032514;28;20169;-78
2023/09/05 10:50:19;;;;;;;10.05;9.05;;;;;;;-141.97;54.92;47657.47;5032129;28;20171;-79
2023/09/05 10:52:49;;;;;;;10.90;9.00;;;;;;;-141.97;54.92;47584.44;5031978;28;20195;-79
2023/09/05 10:55:32;;;;;;;9.95;8.98;;;;;;;-141.97;54.28;47592.13;5030930;28;20714;-78
2023/09/05 10:58:01;;;;;;;10.98;9.30;;;;;;;-141.97;53.15;47588.28;5032299;28;20279;-79
2023/09/05 11:00:29;;;;;;;10.75;9.10;;;;;;;-141.97;53.36;47617.09;5032419;28;20167;-80
2023/09/05 11:03:16;;;;;;;14.27;9.40;;;;;;;-141.97;53.51;47574.81;5031731;28;20173;-80
2023/09/05 11:05:42;;;;;;;10.50;9.40;;;;;;;-141.97;53.41;47586.34;5032712;28;20195;-78
2023/09/05 11:08:23;;;;;;;11.25;9.73;;;;;;;-141.97;53.67;47653.63;5029388;28;20651;-79
2023/09/05 11:10:55;;;;;;;11.43;9.45;;;;;;;-141.97;52.97;47572.91;5012236;28;20682;-78
2023/09/05 11:13:20;;;;;;;12.75;10.25;;;;;;;-141.97;52.91;47572.91;5023775;28;20169;-79